EmailTwitter


Surface observations / United Kingdom / EGUB (03658)

Regions: Quebec | Canada | USA | Europe | France | UK | Elsewhere
Station
Display
Info & Location for EGUB (03658) | Help decoding METAR

Weather Conditions observed on 2018/09/21 at 16:50 UTC at BENSON RAF, UK (EGUB)

Sky conditions: few clouds.

Temperature: 16.0 Celsius.

Dewpoint: 5.0 Celsius.

Relative Humidity: 48%

Winds: West at 24 km/h or 13 knots.

Mean Sea level Pressure: 101.20 kilopascals.

Horizontal visibility: 6.21 statute miles or 9.94 kilometers.

Coded METAR:

EGUB 211650Z AUTO 27013KT 9999 // FEW050/// 16/05 Q1012=